createdAt,value
2019-02-27T00:00:29.398Z,1.27
2019-02-27T00:03:06.084Z,4.00
2019-02-27T00:05:35.114Z,2.10
2019-02-27T00:08:04.043Z,1.57
2019-02-27T00:10:32.837Z,1.67
2019-02-27T00:13:02.067Z,2.57
2019-02-27T00:15:30.990Z,3.90
2019-02-27T00:17:59.814Z,2.30
2019-02-27T00:20:29.001Z,1.83
2019-02-27T00:23:00.804Z,1.63
2019-02-27T00:25:29.694Z,2.50
2019-02-27T00:27:58.817Z,1.83
2019-02-27T00:30:28.525Z,1.50
2019-02-27T00:33:03.757Z,1.67
2019-02-27T00:35:32.757Z,1.47
2019-02-27T00:38:01.582Z,1.40
2019-02-27T00:40:32.113Z,2.47
2019-02-27T00:43:01.038Z,2.23
2019-02-27T00:45:33.183Z,3.23
2019-02-27T00:48:05.412Z,1.30
2019-02-27T00:50:38.857Z,1.67
2019-02-27T00:53:05.154Z,4.30
2019-02-27T00:55:38.542Z,1.63
2019-02-27T00:58:04.809Z,1.87
2019-02-27T01:00:33.836Z,1.37
2019-02-27T01:03:05.922Z,2.03
2019-02-27T01:05:35.137Z,3.67
2019-02-27T01:08:04.055Z,1.70
2019-02-27T01:10:33.187Z,2.63
2019-02-27T01:13:02.074Z,1.80
2019-02-27T01:15:31.302Z,1.73
2019-02-27T01:18:20.304Z,4.07
2019-02-27T01:20:49.977Z,1.80
2019-02-27T01:23:20.623Z,2.07
2019-02-27T01:25:56.906Z,2.83
2019-02-27T01:28:23.904Z,2.23
2019-02-27T01:30:53.140Z,1.77
2019-02-27T01:33:22.616Z,3.30
2019-02-27T01:35:52.416Z,3.40
2019-02-27T01:38:21.660Z,2.37
2019-02-27T01:40:51.549Z,2.10
2019-02-27T01:43:21.252Z,4.90
2019-02-27T01:45:51.831Z,3.70
2019-02-27T01:48:22.472Z,6.83
2019-02-27T01:50:54.986Z,3.40
2019-02-27T01:53:23.371Z,2.70
2019-02-27T01:55:56.205Z,5.87
2019-02-27T01:58:26.091Z,3.07
2019-02-27T02:00:56.249Z,4.30
2019-02-27T02:03:25.610Z,8.27
2019-02-27T02:05:58.776Z,5.60
2019-02-27T02:08:25.514Z,7.60
2019-02-27T02:10:56.035Z,6.80
2019-02-27T02:13:30.950Z,5.67
2019-02-27T02:16:05.781Z,6.47
2019-02-27T02:18:48.758Z,7.33
2019-02-27T02:21:37.778Z,8.10
2019-02-27T02:24:29.059Z,7.67
2019-02-27T02:27:22.119Z,6.03
2019-02-27T02:29:56.549Z,4.33
2019-02-27T02:32:37.067Z,6.30
2019-02-27T02:35:26.762Z,4.93
2019-02-27T02:38:19.773Z,6.33
2019-02-27T02:41:00.414Z,6.17
2019-02-27T02:43:50.652Z,5.47
2019-02-27T02:46:45.333Z,8.40
2019-02-27T02:49:22.516Z,8.47
2019-02-27T02:52:04.537Z,9.20
2019-02-27T02:54:53.417Z,10.50
2019-02-27T02:57:36.350Z,17.97
2019-02-27T03:00:14.273Z,15.33
2019-02-27T03:02:51.897Z,16.47
2019-02-27T03:05:47.898Z,15.83
2019-02-27T03:08:28.722Z,16.87
2019-02-27T03:11:19.147Z,20.30
2019-02-27T03:14:03.126Z,20.57
2019-02-27T03:16:41.118Z,25.77
2019-02-27T03:19:14.316Z,21.47
2019-02-27T03:21:55.407Z,28.13
2019-02-27T03:24:33.499Z,25.83
2019-02-27T03:27:05.913Z,28.67
2019-02-27T03:30:02.170Z,27.53
2019-02-27T03:32:51.949Z,30.57
2019-02-27T03:35:49.563Z,31.00
2019-02-27T03:38:24.841Z,29.10
2019-02-27T03:41:08.757Z,30.33
2019-02-27T03:43:46.138Z,28.60
2019-02-27T03:46:29.261Z,30.37
2019-02-27T03:49:16.016Z,22.87
2019-02-27T03:52:00.498Z,28.97
2019-02-27T03:54:42.698Z,24.97
2019-02-27T03:57:27.056Z,28.20
2019-02-27T04:00:05.818Z,25.73
2019-02-27T04:02:46.413Z,30.43
2019-02-27T04:05:21.386Z,29.17
2019-02-27T04:08:15.841Z,28.50
2019-02-27T04:10:45.305Z,30.57
2019-02-27T04:13:17.276Z,28.87
2019-02-27T04:15:46.822Z,35.27
2019-02-27T04:18:14.640Z,30.73
2019-02-27T04:20:49.741Z,30.67
2019-02-27T04:23:14.697Z,29.63
2019-02-27T04:25:46.716Z,24.17
2019-02-27T04:28:15.827Z,35.13
2019-02-27T04:30:44.673Z,30.13
2019-02-27T04:33:13.907Z,31.03
2019-02-27T04:35:43.055Z,24.57
2019-02-27T04:38:12.134Z,27.17
2019-02-27T04:40:41.764Z,25.27
2019-02-27T04:43:11.617Z,31.80
2019-02-27T04:45:40.599Z,33.00
2019-02-27T04:48:09.758Z,33.97
2019-02-27T04:50:44.159Z,28.33
2019-02-27T04:53:13.015Z,25.53
2019-02-27T04:55:42.123Z,27.67
2019-02-27T04:58:11.347Z,30.93
2019-02-27T05:00:41.577Z,27.40
2019-02-27T05:03:10.439Z,30.43
2019-02-27T05:05:41.368Z,31.13
2019-02-27T05:08:10.022Z,26.50
2019-02-27T05:10:40.604Z,28.17
2019-02-27T05:13:10.052Z,26.73
2019-02-27T05:15:40.148Z,27.13
2019-02-27T05:18:10.427Z,26.20
2019-02-27T05:20:39.677Z,28.53
2019-02-27T05:23:08.738Z,29.27
2019-02-27T05:25:37.862Z,30.50
2019-02-27T05:28:07.576Z,33.40
2019-02-27T05:30:36.475Z,30.67
2019-02-27T05:33:05.476Z,28.73
2019-02-27T05:35:34.611Z,29.93
2019-02-27T05:38:03.457Z,33.07
2019-02-27T05:40:32.711Z,31.13
2019-02-27T05:43:02.072Z,29.77
2019-02-27T05:45:31.348Z,27.30
2019-02-27T05:48:00.836Z,28.10
2019-02-27T05:50:34.044Z,36.93
2019-02-27T05:53:00.595Z,33.07
2019-02-27T05:55:29.471Z,35.87
2019-02-27T05:57:58.651Z,35.47
2019-02-27T06:00:29.590Z,29.80
2019-02-27T06:03:00.390Z,32.10
2019-02-27T06:05:29.604Z,35.50
2019-02-27T06:08:02.062Z,27.30
2019-02-27T06:10:29.816Z,33.60
2019-02-27T06:12:58.639Z,34.80
2019-02-27T06:15:28.597Z,31.47
2019-02-27T06:17:58.804Z,27.03
2019-02-27T06:20:27.655Z,32.07
2019-02-27T06:22:56.668Z,28.40
2019-02-27T06:25:26.001Z,28.70
2019-02-27T06:27:54.974Z,31.10
2019-02-27T06:30:23.856Z,31.93
2019-02-27T06:32:53.441Z,28.87
2019-02-27T06:35:22.798Z,39.87
2019-02-27T06:37:51.937Z,35.20
2019-02-27T06:40:21.882Z,33.20
2019-02-27T06:42:53.423Z,32.20
2019-02-27T06:45:24.186Z,31.40
2019-02-27T06:47:53.380Z,31.10
2019-02-27T06:50:25.151Z,33.37
2019-02-27T06:52:52.922Z,28.17
2019-02-27T06:55:21.920Z,31.20
2019-02-27T06:57:50.747Z,29.50
2019-02-27T07:00:22.160Z,31.90
2019-02-27T07:02:55.189Z,37.33
2019-02-27T07:05:22.466Z,35.93
2019-02-27T07:07:51.425Z,32.80
2019-02-27T07:10:20.694Z,35.77
2019-02-27T07:12:54.383Z,38.47
2019-02-27T07:15:23.233Z,31.17
2019-02-27T07:17:52.556Z,38.27
2019-02-27T07:20:24.404Z,32.37
2019-02-27T07:22:52.083Z,37.97
2019-02-27T07:25:21.017Z,35.20
2019-02-27T07:27:49.940Z,37.87
2019-02-27T07:30:20.175Z,30.70
2019-02-27T07:32:49.408Z,40.33
2019-02-27T07:35:18.695Z,29.10
2019-02-27T07:37:49.577Z,37.90
2019-02-27T07:40:22.043Z,34.50
2019-02-27T07:42:51.779Z,33.87
2019-02-27T07:45:22.793Z,30.33
2019-02-27T07:47:52.165Z,33.77
2019-02-27T07:50:40.302Z,30.43
2019-02-27T07:53:09.692Z,31.60
2019-02-27T07:55:39.048Z,31.27
2019-02-27T07:58:08.087Z,33.53
2019-02-27T08:00:37.601Z,29.83
2019-02-27T08:03:09.229Z,33.57
2019-02-27T08:05:37.081Z,33.73
2019-02-27T08:08:07.511Z,37.53
2019-02-27T08:10:37.512Z,30.10
2019-02-27T08:13:06.521Z,29.80
2019-02-27T08:15:37.068Z,40.67
2019-02-27T08:18:06.335Z,31.37
2019-02-27T08:20:35.297Z,31.17
2019-02-27T08:23:06.820Z,32.23
2019-02-27T08:25:35.840Z,28.17
2019-02-27T08:28:04.994Z,28.33
2019-02-27T08:30:34.426Z,24.93
2019-02-27T08:33:08.139Z,31.20
2019-02-27T08:35:34.530Z,29.37
2019-02-27T08:38:04.604Z,27.67
2019-02-27T08:40:33.491Z,35.43
2019-02-27T08:43:03.217Z,30.37
2019-02-27T08:45:32.676Z,29.57
2019-02-27T08:48:04.690Z,31.77
2019-02-27T08:50:35.100Z,27.30
2019-02-27T08:53:04.297Z,25.90
2019-02-27T08:55:43.367Z,30.90
2019-02-27T08:58:12.790Z,27.47
2019-02-27T09:00:47.485Z,26.60
2019-02-27T09:03:20.343Z,29.50
2019-02-27T09:05:47.145Z,27.93
2019-02-27T09:08:16.726Z,27.77
2019-02-27T09:10:45.768Z,28.60
2019-02-27T09:13:17.509Z,26.60
2019-02-27T09:15:46.755Z,23.73
2019-02-27T09:18:15.890Z,28.27
2019-02-27T09:20:45.579Z,21.37
2019-02-27T09:23:15.083Z,24.23
2019-02-27T09:25:44.062Z,25.43
2019-02-27T09:28:13.581Z,25.23
2019-02-27T09:30:42.977Z,24.13
2019-02-27T09:33:12.160Z,25.83
2019-02-27T09:35:42.214Z,21.97
2019-02-27T09:38:11.482Z,25.40
2019-02-27T09:40:41.227Z,22.00
2019-02-27T09:43:11.617Z,25.33
2019-02-27T09:45:46.174Z,26.80
2019-02-27T09:48:11.952Z,23.40
2019-02-27T09:50:48.246Z,24.53
2019-02-27T09:53:20.251Z,21.37
2019-02-27T09:55:53.424Z,19.47
2019-02-27T09:58:22.545Z,21.97
2019-02-27T10:00:53.856Z,21.10
2019-02-27T10:03:22.730Z,22.03
2019-02-27T10:05:52.425Z,21.50
2019-02-27T10:08:25.341Z,21.13
2019-02-27T10:10:53.088Z,27.77
2019-02-27T10:13:22.462Z,19.40
2019-02-27T10:15:51.793Z,15.07
2019-02-27T10:18:22.087Z,21.57
2019-02-27T10:20:51.233Z,20.87
2019-02-27T10:23:21.134Z,18.57
2019-02-27T10:25:50.124Z,18.03
2019-02-27T10:28:19.439Z,14.13
2019-02-27T10:30:49.957Z,17.07
2019-02-27T10:33:19.813Z,18.43
2019-02-27T10:36:10.730Z,16.47
2019-02-27T10:38:40.452Z,17.07
2019-02-27T10:41:09.386Z,16.43
2019-02-27T10:43:38.573Z,14.20
2019-02-27T10:46:07.366Z,13.53
2019-02-27T10:48:42.805Z,14.33
2019-02-27T10:51:20.255Z,13.43
2019-02-27T10:53:51.285Z,11.47
2019-02-27T10:56:21.625Z,9.93
2019-02-27T10:58:52.751Z,12.20
2019-02-27T11:01:21.855Z,12.83
2019-02-27T11:03:50.916Z,11.00
2019-02-27T11:06:20.680Z,15.43
2019-02-27T11:08:49.709Z,15.07
2019-02-27T11:11:18.887Z,13.23
2019-02-27T11:13:51.669Z,9.37
2019-02-27T11:16:21.369Z,8.70
2019-02-27T11:18:51.343Z,8.70
2019-02-27T11:21:21.799Z,9.63
2019-02-27T11:23:51.082Z,11.57
2019-02-27T11:26:23.407Z,10.00
2019-02-27T11:28:51.647Z,10.90
2019-02-27T11:31:22.271Z,10.90
2019-02-27T11:33:51.503Z,7.97
2019-02-27T11:36:20.520Z,7.97
2019-02-27T11:38:50.023Z,5.37
2019-02-27T11:41:19.885Z,6.47
2019-02-27T11:43:52.714Z,8.33
2019-02-27T11:46:20.228Z,8.77
2019-02-27T11:48:49.673Z,11.03
2019-02-27T11:51:20.187Z,6.80
2019-02-27T11:53:50.028Z,7.90
2019-02-27T11:56:20.909Z,9.23
2019-02-27T11:58:51.581Z,9.93
2019-02-27T12:01:22.169Z,9.07
2019-02-27T12:03:51.948Z,10.47
2019-02-27T12:06:21.281Z,8.80
2019-02-27T12:08:51.123Z,7.73
2019-02-27T12:11:20.112Z,10.13
2019-02-27T12:13:54.853Z,8.70
2019-02-27T12:16:24.180Z,8.33
2019-02-27T12:18:53.353Z,7.67
2019-02-27T12:21:25.490Z,9.83
2019-02-27T12:23:55.199Z,6.77
2019-02-27T12:26:24.088Z,7.70
2019-02-27T12:28:52.944Z,9.07
2019-02-27T12:31:25.077Z,6.77
2019-02-27T12:33:54.205Z,6.97
2019-02-27T12:36:23.543Z,8.53
2019-02-27T12:38:52.462Z,8.13
2019-02-27T12:41:21.788Z,10.03
2019-02-27T12:43:52.740Z,5.80
2019-02-27T12:46:24.707Z,5.53
2019-02-27T12:48:57.226Z,5.40
2019-02-27T12:51:26.549Z,11.40
2019-02-27T12:53:55.494Z,4.90
2019-02-27T12:56:27.107Z,7.70
2019-02-27T12:58:58.709Z,8.13
2019-02-27T13:01:26.849Z,7.73
2019-02-27T13:03:56.867Z,10.63
2019-02-27T13:06:26.043Z,10.03
2019-02-27T13:08:55.914Z,6.87
2019-02-27T13:11:26.368Z,7.37
2019-02-27T13:13:57.243Z,9.27
2019-02-27T13:16:25.956Z,7.13
2019-02-27T13:18:55.161Z,7.30
2019-02-27T13:21:24.031Z,4.87
2019-02-27T13:23:53.124Z,7.43
2019-02-27T13:26:25.236Z,8.17
2019-02-27T13:28:54.227Z,5.83
2019-02-27T13:31:24.741Z,5.53
2019-02-27T13:33:54.179Z,6.83
2019-02-27T13:36:24.688Z,5.33
2019-02-27T13:38:53.602Z,8.03
2019-02-27T13:41:23.752Z,9.97
2019-02-27T13:43:52.796Z,5.17
2019-02-27T13:46:28.979Z,6.37
2019-02-27T13:49:06.111Z,4.87
2019-02-27T13:51:37.226Z,6.13
2019-02-27T13:54:07.372Z,5.77
2019-02-27T13:56:36.362Z,4.27
2019-02-27T13:59:07.456Z,5.00
2019-02-27T14:01:37.921Z,4.37
2019-02-27T14:04:06.850Z,4.63
2019-02-27T14:06:36.141Z,5.30
2019-02-27T14:09:07.723Z,5.03
2019-02-27T14:11:37.578Z,2.90
2019-02-27T14:14:06.364Z,4.77
2019-02-27T14:16:36.968Z,6.33
2019-02-27T14:19:06.169Z,8.73
2019-02-27T14:21:36.166Z,5.67
2019-02-27T14:24:05.252Z,4.53
2019-02-27T14:26:34.173Z,4.53
2019-02-27T14:29:04.183Z,4.40
2019-02-27T14:31:33.169Z,3.90
2019-02-27T14:34:03.941Z,3.67
2019-02-27T14:36:32.800Z,3.67
2019-02-27T14:39:01.762Z,3.60
2019-02-27T14:41:30.964Z,3.47
2019-02-27T14:44:00.009Z,3.07
2019-02-27T14:46:28.841Z,2.57
2019-02-27T14:48:58.002Z,4.17
2019-02-27T14:51:27.147Z,8.57
2019-02-27T14:53:56.149Z,2.60
2019-02-27T14:56:25.593Z,4.23
2019-02-27T14:58:57.597Z,5.43
2019-02-27T15:01:27.070Z,5.07
2019-02-27T15:03:55.972Z,3.83
2019-02-27T15:06:24.781Z,3.43
2019-02-27T15:08:58.078Z,3.83
2019-02-27T15:11:24.204Z,3.70
2019-02-27T15:13:52.985Z,2.53
2019-02-27T15:16:22.259Z,2.10
2019-02-27T15:18:54.780Z,3.90
2019-02-27T15:21:21.782Z,3.23
2019-02-27T15:23:53.518Z,3.03
2019-02-27T15:26:22.585Z,4.50
2019-02-27T15:28:51.583Z,3.33
2019-02-27T15:31:22.655Z,2.70
2019-02-27T15:33:54.170Z,5.40
2019-02-27T15:36:23.677Z,5.97
2019-02-27T15:38:55.226Z,4.23
2019-02-27T15:41:24.688Z,5.03
2019-02-27T15:44:00.158Z,2.80
2019-02-27T15:46:24.231Z,6.83
2019-02-27T15:48:53.351Z,4.97
2019-02-27T15:51:22.267Z,3.97
2019-02-27T15:53:52.823Z,4.57
2019-02-27T15:56:24.540Z,3.57
2019-02-27T15:58:53.306Z,4.43
2019-02-27T16:01:24.801Z,3.10
2019-02-27T16:03:53.013Z,3.63
2019-02-27T16:06:23.202Z,3.17
2019-02-27T16:08:58.242Z,3.50
2019-02-27T16:11:25.501Z,5.53
2019-02-27T16:13:55.339Z,3.80
2019-02-27T16:16:24.635Z,5.70
2019-02-27T16:18:53.577Z,8.70
2019-02-27T16:21:23.748Z,5.67
2019-02-27T16:23:56.224Z,3.53
2019-02-27T16:26:27.174Z,3.67
2019-02-27T16:28:56.008Z,7.20
2019-02-27T16:31:25.288Z,4.80
2019-02-27T16:33:55.489Z,4.77
2019-02-27T16:36:35.619Z,4.83
2019-02-27T16:38:55.714Z,2.50
2019-02-27T16:41:28.221Z,4.30
2019-02-27T16:43:55.253Z,6.10
2019-02-27T16:46:24.187Z,4.47
2019-02-27T16:48:53.100Z,3.07
2019-02-27T16:51:23.480Z,4.83
2019-02-27T16:53:55.201Z,4.40
2019-02-27T16:56:24.174Z,8.00
2019-02-27T16:58:53.078Z,5.70
2019-02-27T17:01:22.139Z,7.73
2019-02-27T17:03:59.582Z,6.47
2019-02-27T17:06:23.219Z,4.70
2019-02-27T17:08:54.986Z,3.50
2019-02-27T17:11:23.742Z,3.90
2019-02-27T17:13:57.622Z,3.90
2019-02-27T17:16:26.163Z,4.13
2019-02-27T17:18:54.939Z,4.07
2019-02-27T17:21:26.020Z,2.80
2019-02-27T17:23:55.215Z,8.20
2019-02-27T17:26:24.475Z,3.10
2019-02-27T17:28:53.461Z,3.43
2019-02-27T17:31:22.216Z,4.80
2019-02-27T17:33:53.022Z,4.33
2019-02-27T17:36:21.992Z,3.97
2019-02-27T17:38:51.701Z,4.90
2019-02-27T17:41:20.738Z,2.60
2019-02-27T17:43:51.545Z,4.40
2019-02-27T17:46:22.935Z,4.67
2019-02-27T17:48:53.599Z,4.40
2019-02-27T17:51:22.403Z,5.90
2019-02-27T17:53:55.146Z,3.93
2019-02-27T17:56:24.912Z,4.43
2019-02-27T17:58:53.821Z,5.50
2019-02-27T18:01:25.423Z,4.70
2019-02-27T18:03:56.246Z,6.10
2019-02-27T18:06:34.764Z,3.47
2019-02-27T18:09:03.352Z,4.70
2019-02-27T18:11:32.406Z,2.73
2019-02-27T18:14:01.708Z,2.83
2019-02-27T18:16:31.675Z,2.40
2019-02-27T18:19:00.757Z,2.20
2019-02-27T18:21:33.524Z,4.13
2019-02-27T18:24:01.326Z,3.83
2019-02-27T18:26:30.256Z,7.97
2019-02-27T18:29:00.004Z,5.73
2019-02-27T18:31:28.915Z,4.97
2019-02-27T18:33:59.745Z,5.60
2019-02-27T18:36:29.126Z,3.87
2019-02-27T18:39:02.526Z,5.23
2019-02-27T18:41:34.025Z,5.27
2019-02-27T18:44:07.878Z,3.70
2019-02-27T18:46:36.847Z,6.17
2019-02-27T18:49:05.745Z,2.67
2019-02-27T18:51:34.945Z,2.33
2019-02-27T18:54:04.002Z,2.27
2019-02-27T18:56:34.114Z,3.47
2019-02-27T18:59:03.710Z,3.93
2019-02-27T19:01:33.097Z,3.90
2019-02-27T19:04:03.235Z,5.07
2019-02-27T19:06:32.190Z,6.30
2019-02-27T19:09:01.213Z,6.97
2019-02-27T19:11:29.992Z,2.97
2019-02-27T19:14:02.412Z,3.77
2019-02-27T19:16:32.478Z,6.20
2019-02-27T19:19:01.483Z,5.37
2019-02-27T19:21:32.929Z,5.73
2019-02-27T19:24:01.092Z,2.60
2019-02-27T19:26:30.106Z,3.70
2019-02-27T19:29:00.745Z,3.70
2019-02-27T19:31:30.008Z,4.07
2019-02-27T19:33:59.043Z,2.83
2019-02-27T19:36:30.604Z,4.03
2019-02-27T19:38:59.163Z,3.20
2019-02-27T19:41:28.239Z,5.17
2019-02-27T19:43:57.240Z,2.80
2019-02-27T19:46:26.795Z,3.63
2019-02-27T19:48:55.858Z,3.47
2019-02-27T19:51:25.095Z,2.73
2019-02-27T19:53:54.040Z,6.77
2019-02-27T19:56:23.328Z,2.57
2019-02-27T19:58:52.365Z,2.80
2019-02-27T20:01:22.639Z,5.67
2019-02-27T20:03:54.418Z,6.00
2019-02-27T20:06:24.610Z,7.30
2019-02-27T20:08:53.923Z,8.67
2019-02-27T20:11:23.134Z,5.30
2019-02-27T20:13:53.945Z,3.57
2019-02-27T20:16:22.488Z,3.93
2019-02-27T20:18:55.137Z,3.67
2019-02-27T20:21:25.990Z,5.60
2019-02-27T20:24:00.990Z,6.70
2019-02-27T20:26:25.705Z,5.97
2019-02-27T20:28:54.524Z,6.17
2019-02-27T20:31:23.698Z,6.77
2019-02-27T20:33:52.589Z,2.40
2019-02-27T20:36:24.306Z,3.93
2019-02-27T20:38:53.150Z,4.43
2019-02-27T20:41:22.143Z,2.20
2019-02-27T20:43:54.255Z,3.60
2019-02-27T20:46:24.551Z,2.50
2019-02-27T20:48:53.880Z,3.73
2019-02-27T20:51:23.183Z,5.83
2019-02-27T20:53:52.565Z,7.10
2019-02-27T20:56:22.759Z,4.23
2019-02-27T20:58:52.125Z,2.63
2019-02-27T21:01:22.645Z,4.07
2019-02-27T21:03:54.569Z,3.97
2019-02-27T21:06:23.697Z,6.77
2019-02-27T21:08:52.588Z,4.07
2019-02-27T21:11:29.573Z,4.40
2019-02-27T21:13:55.404Z,2.43
2019-02-27T21:16:24.352Z,3.47
2019-02-27T21:18:53.681Z,2.87
2019-02-27T21:21:22.804Z,3.53
2019-02-27T21:23:55.143Z,4.00
2019-02-27T21:26:23.959Z,2.83
2019-02-27T21:28:58.530Z,2.57
2019-02-27T21:31:27.645Z,3.23
2019-02-27T21:33:54.794Z,5.00
2019-02-27T21:36:23.652Z,4.77
2019-02-27T21:38:52.708Z,6.13
2019-02-27T21:41:24.488Z,2.57
2019-02-27T21:43:56.557Z,4.53
2019-02-27T21:46:23.987Z,4.80
2019-02-27T21:48:53.006Z,6.27
2019-02-27T21:51:25.642Z,2.50
2019-02-27T21:53:54.390Z,8.50
2019-02-27T21:56:23.316Z,2.23
2019-02-27T21:58:52.713Z,4.83
2019-02-27T22:04:50.159Z,4.83
2019-02-27T22:07:19.472Z,4.87
2019-02-27T22:09:50.101Z,3.33
2019-02-27T22:12:19.461Z,5.97
2019-02-27T22:14:48.677Z,5.73
2019-02-27T22:17:18.370Z,5.70
2019-02-27T22:19:50.438Z,6.23
2019-02-27T22:22:19.981Z,3.73
2019-02-27T22:24:52.234Z,3.27
2019-02-27T22:27:22.445Z,4.73
2019-02-27T22:29:51.564Z,3.40
2019-02-27T22:32:23.833Z,6.23
2019-02-27T22:34:52.728Z,2.57
2019-02-27T22:37:23.155Z,5.67
2019-02-27T22:39:53.179Z,6.33
2019-02-27T22:42:22.270Z,3.80
2019-02-27T22:44:51.308Z,5.30
2019-02-27T22:47:21.501Z,6.70
2019-02-27T22:49:51.917Z,2.30
2019-02-27T22:52:21.022Z,7.13
2019-02-27T22:54:52.643Z,5.67
2019-02-27T22:57:24.461Z,6.57
2019-02-27T22:59:53.477Z,5.87
2019-02-27T23:02:24.242Z,5.73
2019-02-27T23:04:53.185Z,6.00
2019-02-27T23:07:22.207Z,6.07
2019-02-27T23:09:52.687Z,6.60
2019-02-27T23:12:21.817Z,4.97
2019-02-27T23:14:53.797Z,3.33
2019-02-27T23:17:22.664Z,4.83
2019-02-27T23:19:54.740Z,5.87
2019-02-27T23:22:23.602Z,3.67
2019-02-27T23:24:52.670Z,3.97
2019-02-27T23:27:26.026Z,3.80
2019-02-27T23:29:54.840Z,4.27
2019-02-27T23:32:28.436Z,6.83
2019-02-27T23:34:55.624Z,5.77
2019-02-27T23:37:29.271Z,8.97
2019-02-27T23:39:55.612Z,6.20
2019-02-27T23:42:27.874Z,5.57
2019-02-27T23:44:57.681Z,9.93
2019-02-27T23:47:28.711Z,5.03
2019-02-27T23:49:58.587Z,9.50
2019-02-27T23:52:27.616Z,8.17
2019-02-27T23:54:56.624Z,6.67
2019-02-27T23:57:25.608Z,4.17
2019-02-27T23:59:56.535Z,6.97
